Pays
Station

 

Conditions  météo  pour  Minot Air Force Base  -  Etats-Unis    Etats-Unis

  
14 °C
    
 
 

METAR pour Minot Air Force Base :

KMIB 231156Z AUTO 14005KT 10SM CLR 14/12 A2995 RMK AO2 LTG DSNT S SLP143 T01420117 10162 20113 53011 $

 

Voici le bulletin pour Minot Air Force Base - Etats-Unis.
 
Le bulletin a été fait il y a 38 minutes, à 11:56 UTC .
Le vent soufflait à la vitesse de 2.6 mètres par seconde de Sud-est (140°).
 
La température était de 14 °C, avec un point de rosée à 12 °C.
La pression atmosphérique était de 1014 hPa.
L'humidité relative était de 87.7%.
 
Le ciel était clair.
 
La visibilité globale était de 16.1 kilomètres.
 

 
 
 

Pays :   A   B   C   D   E   F   G   H   I   J   K   L   M   N   O   P   Q   R   S   T   U   V   W   Y   Z

 

Partenaires :  Info Météo avec Met'info
Météo Marine avec MeteoMarine.net
Infos Site  |  Infos Légales  |  Crédits  |  Confidentialité
Contactez-nous  |  Ajouter aux favoris
© 2013-2018 METAR - Tous droits réservés